Time;durP1;ratioP1;P1;durP2;ratioP2;P2;SDS_P1;SDS_P2;PMS_P1;PMS_P2;Temp;Humidity;BMP_temperature;BMP_pressure;BME280_temperature;BME280_humidity;BME280_pressure;Samples;Min_cycle;Max_cycle;Signal;HPM_P1;HPM_P2
2022/08/06 00:02:11;;;;;;;5.97;1.75;;;;;;;16.50;50.47;102629.16;5146459;28;20416;-62
2022/08/06 00:04:44;;;;;;;4.70;1.85;;;;;;;16.47;50.51;102632.09;5138176;28;20424;-59
2022/08/06 00:07:17;;;;;;;5.18;1.83;;;;;;;16.44;50.60;102621.72;5134332;28;20872;-61
2022/08/06 00:09:50;;;;;;;3.00;1.23;;;;;;;16.40;50.67;102620.34;5144177;28;20503;-61
2022/08/06 00:12:22;;;;;;;5.28;2.22;;;;;;;16.28;50.86;102617.00;5133974;28;20486;-61
2022/08/06 00:14:54;;;;;;;5.65;1.92;;;;;;;16.34;50.95;102634.25;5150548;28;20800;-62
2022/08/06 00:17:27;;;;;;;4.47;1.52;;;;;;;16.34;50.79;102634.25;5149652;28;20873;-62
2022/08/06 00:20:01;;;;;;;4.15;1.60;;;;;;;16.30;50.96;102636.38;5142855;28;20451;-63
2022/08/06 00:22:35;;;;;;;5.80;1.80;;;;;;;16.29;50.96;102642.69;5149593;28;20773;-62
2022/08/06 00:25:08;;;;;;;4.72;1.63;;;;;;;16.25;51.05;102640.44;5149900;28;20431;-60
2022/08/06 00:27:41;;;;;;;6.72;1.75;;;;;;;16.23;51.11;102645.94;5149745;28;20417;-61
2022/08/06 00:30:14;;;;;;;4.75;1.65;;;;;;;16.19;51.31;102643.69;5149646;28;20443;-60
2022/08/06 00:32:47;;;;;;;4.20;1.10;;;;;;;16.18;51.30;102642.00;5149704;28;20967;-61
2022/08/06 00:35:24;;;;;;;6.73;1.40;;;;;;;16.15;51.35;102648.47;5144662;28;20416;-42
2022/08/06 00:37:58;;;;;;;6.40;1.60;;;;;;;16.12;51.51;102652.25;5150654;28;20427;-60
2022/08/06 00:40:31;;;;;;;3.75;1.85;;;;;;;16.09;51.50;102649.88;5150316;28;20412;-61
2022/08/06 00:43:06;;;;;;;4.73;1.60;;;;;;;16.06;51.59;102646.66;5150510;28;20826;-62
2022/08/06 00:45:38;;;;;;;4.20;1.60;;;;;;;16.07;51.69;102661.66;5149802;28;20888;-62
2022/08/06 00:48:11;;;;;;;4.50;1.85;;;;;;;16.04;51.78;102656.59;5145330;28;20536;-61
2022/08/06 00:50:43;;;;;;;6.22;2.42;;;;;;;16.01;51.89;102659.53;5141223;28;20443;-57
2022/08/06 00:53:17;;;;;;;6.43;1.60;;;;;;;15.98;51.88;102658.03;5145213;28;20601;-61
2022/08/06 00:55:50;;;;;;;5.70;1.48;;;;;;;15.96;52.08;102665.31;5138272;28;20517;-59
2022/08/06 00:58:22;;;;;;;5.18;2.17;;;;;;;15.94;52.08;102661.94;5149498;28;20762;-61
2022/08/06 01:00:54;;;;;;;2.85;1.50;;;;;;;15.92;52.04;102663.91;5141767;28;20891;-60
2022/08/06 01:03:27;;;;;;;3.78;1.63;;;;;;;15.81;52.03;102656.88;5157936;28;20412;-61
2022/08/06 01:05:59;;;;;;;4.22;1.63;;;;;;;15.89;52.17;102666.84;5170075;28;20419;-61
2022/08/06 01:08:33;;;;;;;5.38;2.10;;;;;;;15.87;52.22;102676.81;5158820;28;20448;-62
2022/08/06 01:11:07;;;;;;;3.85;1.80;;;;;;;15.84;52.28;102669.09;5149235;28;20742;-61
2022/08/06 01:13:39;;;;;;;3.90;1.45;;;;;;;15.82;52.24;102684.38;5147846;28;21335;-62
2022/08/06 01:16:18;;;;;;;9.70;1.70;;;;;;;15.80;52.32;102687.19;5138641;28;20413;-61
2022/08/06 01:19:00;;;;;;;6.22;1.70;;;;;;;15.78;52.47;102685.63;5127276;28;20509;-60
2022/08/06 01:21:56;;;;;;;7.78;1.58;;;;;;;15.75;52.49;102685.91;5138830;28;20419;-61
2022/08/06 01:25:02;;;;;;;3.42;1.58;;;;;;;15.74;52.59;102686.91;5127129;28;20832;-61
2022/08/06 01:27:49;;;;;;;4.53;1.83;;;;;;;15.72;52.75;102694.19;5126118;28;20873;-61
2022/08/06 01:30:23;;;;;;;5.43;1.80;;;;;;;15.68;52.69;102702.44;5122897;28;20406;-60
2022/08/06 01:33:02;;;;;;;7.00;1.50;;;;;;;15.67;52.64;102702.59;5128600;28;20886;-61
2022/08/06 01:35:39;;;;;;;6.80;1.50;;;;;;;15.66;52.65;102695.53;5118966;28;20536;-61
2022/08/06 01:38:17;;;;;;;4.78;1.80;;;;;;;15.65;52.83;102708.00;5143338;28;20740;-62
2022/08/06 01:40:51;;;;;;;4.65;1.40;;;;;;;15.65;52.75;102705.34;5139205;28;20752;-55
2022/08/06 01:43:27;;;;;;;5.57;1.92;;;;;;;15.63;52.98;102707.31;5141615;28;20771;-61
2022/08/06 01:46:01;;;;;;;4.45;1.45;;;;;;;15.62;52.99;102702.97;5148657;28;20583;-62
2022/08/06 01:48:41;;;;;;;3.45;1.40;;;;;;;15.59;52.88;102700.56;5148945;28;20456;-61
2022/08/06 01:51:13;;;;;;;3.30;1.40;;;;;;;15.58;52.94;102701.56;5149176;28;20734;-62
2022/08/06 01:53:46;;;;;;;4.50;1.73;;;;;;;15.57;53.08;102710.50;5148275;28;20488;-61
2022/08/06 01:56:19;;;;;;;5.20;1.50;;;;;;;15.55;53.11;102715.16;5138508;28;20438;-61
2022/08/06 01:58:56;;;;;;;4.60;1.93;;;;;;;15.53;53.21;102711.78;5140192;28;20815;-61
2022/08/06 02:01:30;;;;;;;2.60;1.30;;;;;;;15.49;53.22;102702.38;5169117;28;20419;-61
2022/08/06 02:04:05;;;;;;;3.75;2.10;;;;;;;15.49;53.26;102706.88;5168707;28;20755;-61
2022/08/06 02:06:44;;;;;;;4.70;1.67;;;;;;;15.46;53.50;102702.66;5148770;28;20897;-61
2022/08/06 02:09:21;;;;;;;3.00;1.63;;;;;;;15.41;53.46;102707.53;5148502;28;20846;-60
2022/08/06 02:11:59;;;;;;;5.20;2.00;;;;;;;15.39;53.53;102698.81;5129245;28;20852;-62
2022/08/06 02:14:35;;;;;;;2.92;1.30;;;;;;;15.37;53.62;102700.81;5146344;28;20444;-62
2022/08/06 02:17:09;;;;;;;2.85;1.60;;;;;;;15.36;53.83;102707.09;5148120;28;20529;-61
2022/08/06 02:19:47;;;;;;;5.43;1.58;;;;;;;15.34;53.79;102706.41;5148169;28;20850;-62
2022/08/06 02:22:21;;;;;;;4.65;1.73;;;;;;;15.24;53.84;102695.72;5146186;28;20404;-52
2022/08/06 02:24:54;;;;;;;6.72;1.90;;;;;;;15.28;53.91;102709.59;5148148;28;20412;-60
2022/08/06 02:27:27;;;;;;;3.15;1.58;;;;;;;15.27;53.96;102710.56;5147361;28;20436;-61
2022/08/06 02:30:04;;;;;;;3.17;1.40;;;;;;;15.26;53.95;102708.88;5148422;28;20420;-63
2022/08/06 02:32:36;;;;;;;10.13;2.10;;;;;;;15.25;54.03;102701.88;5152667;28;20763;-60
2022/08/06 02:35:10;;;;;;;4.03;1.60;;;;;;;15.22;54.09;102716.31;5143524;28;20577;-62
2022/08/06 02:37:48;;;;;;;8.23;2.20;;;;;;;15.21;54.13;102707.47;5133600;28;20727;-61
2022/08/06 02:40:30;;;;;;;6.30;1.95;;;;;;;15.16;54.23;102709.69;5129992;28;20411;-60
2022/08/06 02:43:07;;;;;;;6.30;2.50;;;;;;;15.17;54.23;102713.19;5127980;28;20907;-61
2022/08/06 02:45:47;;;;;;;4.50;1.65;;;;;;;15.15;54.04;102712.50;5129412;28;20412;-62
2022/08/06 02:48:27;;;;;;;6.25;1.65;;;;;;;15.13;54.41;102714.44;5135370;28;20697;-58
2022/08/06 02:51:04;;;;;;;4.03;1.52;;;;;;;15.10;54.36;102704.06;5150352;28;20419;-62
2022/08/06 02:53:44;;;;;;;4.43;1.90;;;;;;;15.08;54.38;102711.34;5141939;28;20871;-62
2022/08/06 02:56:17;;;;;;;5.43;1.45;;;;;;;15.04;54.47;102710.75;5157730;28;20425;-61
2022/08/06 02:58:53;;;;;;;4.55;1.80;;;;;;;14.86;54.63;102689.25;5151476;28;20937;-63
2022/08/06 03:01:30;;;;;;;6.57;2.22;;;;;;;15.01;54.67;102716.34;5149439;28;20413;-62
2022/08/06 03:04:04;;;;;;;3.83;1.80;;;;;;;14.99;54.72;102711.19;5149773;28;20403;-62
2022/08/06 03:06:38;;;;;;;5.45;1.92;;;;;;;14.94;54.69;102705.41;5150535;28;20424;-62
2022/08/06 03:09:11;;;;;;;3.78;1.98;;;;;;;14.81;54.89;102699.47;5147192;28;22683;-62
2022/08/06 03:11:45;;;;;;;6.30;1.67;;;;;;;14.92;54.92;102712.66;5147761;28;20855;-62
2022/08/06 03:14:23;;;;;;;2.95;1.33;;;;;;;14.90;54.89;102713.78;5143342;28;20881;-61
2022/08/06 03:16:58;;;;;;;4.70;1.90;;;;;;;14.90;55.04;102713.78;5148179;28;20407;-61
2022/08/06 03:19:32;;;;;;;6.17;2.13;;;;;;;14.88;55.04;102723.72;5151425;28;21043;-61
2022/08/06 03:22:05;;;;;;;3.88;1.70;;;;;;;14.85;55.17;102729.28;5145577;28;20430;-61
2022/08/06 03:24:40;;;;;;;5.00;1.50;;;;;;;14.84;55.22;102731.13;5145427;28;20850;-62
2022/08/06 03:27:13;;;;;;;2.27;1.60;;;;;;;14.68;55.27;102705.00;5143736;28;20412;-62
2022/08/06 03:29:52;;;;;;;3.67;1.33;;;;;;;14.83;55.34;102728.56;5151342;28;20733;-62
2022/08/06 03:32:26;;;;;;;7.00;2.00;;;;;;;14.81;55.34;102730.53;5148118;28;21001;-60
2022/08/06 03:35:00;;;;;;;5.40;1.70;;;;;;;14.80;55.28;102739.47;5144294;28;20429;-60
2022/08/06 03:37:34;;;;;;;8.23;2.38;;;;;;;14.78;55.50;102739.63;5143377;28;20885;-62
2022/08/06 03:40:08;;;;;;;4.60;1.92;;;;;;;14.78;55.45;102744.09;5150643;28;20731;-61
2022/08/06 03:42:41;;;;;;;5.18;2.30;;;;;;;14.76;55.53;102745.06;5146568;28;21004;-62
2022/08/06 03:45:13;;;;;;;5.88;2.00;;;;;;;14.74;55.47;102749.69;5150864;28;20397;-62
2022/08/06 03:47:52;;;;;;;6.43;2.05;;;;;;;14.73;55.41;102755.97;5150763;28;20421;-62
2022/08/06 03:50:32;;;;;;;7.22;2.35;;;;;;;14.71;55.46;102747.28;5144643;28;20416;-62
2022/08/06 03:53:07;;;;;;;5.75;2.03;;;;;;;14.70;55.65;102747.41;5147052;28;20479;-63
2022/08/06 03:55:41;;;;;;;4.82;2.08;;;;;;;14.63;55.68;102738.25;5142927;28;20721;-62
2022/08/06 03:58:15;;;;;;;4.68;1.75;;;;;;;14.68;55.65;102758.19;5150976;28;20494;-63
2022/08/06 04:00:57;;;;;;;4.55;1.70;;;;;;;14.60;55.62;102750.00;5150709;28;20441;-63
2022/08/06 04:03:32;;;;;;;9.35;2.20;;;;;;;14.66;55.82;102767.25;5144227;28;20428;-62
2022/08/06 04:06:09;;;;;;;7.43;2.53;;;;;;;14.64;55.89;102767.38;5150383;28;20723;-63
2022/08/06 04:08:42;;;;;;;5.95;2.00;;;;;;;14.63;56.13;102765.69;5150198;28;20443;-62
2022/08/06 04:11:15;;;;;;;8.77;2.27;;;;;;;14.64;56.00;102762.06;5150899;28;20913;-63
2022/08/06 04:13:48;;;;;;;4.40;1.50;;;;;;;14.62;55.84;102758.69;5152627;28;20435;-59
2022/08/06 04:16:21;;;;;;;6.22;2.05;;;;;;;14.65;56.05;102763.75;5132820;28;20424;-61
2022/08/06 04:18:56;;;;;;;4.78;1.85;;;;;;;14.64;56.01;102756.72;5149844;28;20921;-61
2022/08/06 04:21:28;;;;;;;6.95;2.38;;;;;;;14.65;55.95;102757.59;5144676;28;20429;-61
2022/08/06 04:24:01;;;;;;;6.03;2.47;;;;;;;14.63;56.00;102764.84;5149310;28;20866;-61
2022/08/06 04:26:35;;;;;;;4.60;1.70;;;;;;;14.62;56.14;102764.03;5149217;28;20702;-62
2022/08/06 04:29:12;;;;;;;3.80;1.85;;;;;;;14.62;56.17;102761.38;5149758;28;20956;-62
2022/08/06 04:31:47;;;;;;;3.10;1.52;;;;;;;14.66;56.22;102776.06;5147558;28;20857;-62
2022/08/06 04:34:25;;;;;;;6.60;2.80;;;;;;;14.66;56.21;102770.75;5145332;28;20741;-62
2022/08/06 04:37:00;;;;;;;6.70;2.75;;;;;;;14.67;56.30;102772.44;5133901;28;20418;-62
2022/08/06 04:39:34;;;;;;;4.95;2.28;;;;;;;14.67;56.26;102767.13;5123494;28;20416;-62
2022/08/06 04:42:08;;;;;;;5.55;2.60;;;;;;;14.70;56.24;102777.50;5148648;28;20527;-63
2022/08/06 04:44:41;;;;;;;3.83;2.15;;;;;;;14.71;56.33;102778.31;5150112;28;20857;-63
2022/08/06 04:47:14;;;;;;;5.07;2.45;;;;;;;14.73;56.36;102776.41;5148302;28;20740;-62
2022/08/06 04:49:48;;;;;;;4.78;2.20;;;;;;;14.73;56.36;102782.56;5166105;28;20740;-62
2022/08/06 04:52:24;;;;;;;5.32;2.13;;;;;;;14.71;56.39;102773.00;5160200;28;20858;-55
2022/08/06 04:54:57;;;;;;;5.50;2.00;;;;;;;14.81;56.43;102773.94;5138175;28;20409;-63
2022/08/06 04:57:29;;;;;;;6.23;2.17;;;;;;;14.85;56.33;102774.53;5145995;28;20424;-61
2022/08/06 05:00:02;;;;;;;4.03;1.97;;;;;;;14.89;56.23;102778.59;5139550;28;20414;-62
2022/08/06 05:02:34;;;;;;;3.03;1.70;;;;;;;14.91;56.42;102787.31;5143267;28;20552;-62
2022/08/06 05:05:10;;;;;;;6.40;2.43;;;;;;;14.90;56.30;102785.63;5149001;28;20431;-61
2022/08/06 05:07:43;;;;;;;5.53;2.70;;;;;;;14.97;56.44;102789.44;5149044;28;20843;-62
2022/08/06 05:10:16;;;;;;;8.85;2.67;;;;;;;15.00;56.41;102791.84;5145739;28;20416;-63
2022/08/06 05:12:54;;;;;;;11.93;3.20;;;;;;;15.03;56.53;102788.91;5129228;28;20743;-62
2022/08/06 05:15:32;;;;;;;9.32;4.38;;;;;;;15.08;56.36;102789.38;5146835;28;20726;-63
2022/08/06 05:18:11;;;;;;;9.77;5.00;;;;;;;15.11;56.33;102783.78;5148873;28;20601;-62
2022/08/06 05:20:50;;;;;;;8.07;3.50;;;;;;;15.16;56.47;102800.19;5148972;28;20828;-62
2022/08/06 05:23:28;;;;;;;7.38;2.78;;;;;;;15.19;56.44;102794.59;5127299;28;20859;-62
2022/08/06 05:26:00;;;;;;;7.78;2.53;;;;;;;15.28;56.37;102808.09;5129096;28;20429;-61
2022/08/06 05:28:33;;;;;;;3.35;2.17;;;;;;;15.31;56.36;102802.50;5126996;28;20422;-61
2022/08/06 05:31:06;;;;;;;8.52;3.00;;;;;;;15.38;56.42;102801.00;5125197;28;20430;-61
2022/08/06 05:33:40;;;;;;;4.47;2.28;;;;;;;15.42;56.28;102792.63;5119060;28;20419;-61
2022/08/06 05:36:14;;;;;;;3.88;1.55;;;;;;;15.52;56.25;102799.81;5138878;28;20416;-62
2022/08/06 05:38:47;;;;;;;5.05;1.80;;;;;;;15.60;56.22;102800.78;5148596;28;20878;-62
2022/08/06 05:41:20;;;;;;;4.57;1.67;;;;;;;15.71;56.20;102807.88;5148888;28;20530;-62
2022/08/06 05:43:52;;;;;;;9.00;2.00;;;;;;;15.80;56.16;102801.75;5153578;28;20403;-61
2022/08/06 05:46:27;;;;;;;6.97;1.63;;;;;;;15.78;55.94;102794.88;5163354;28;20431;-61
2022/08/06 05:49:06;;;;;;;8.38;2.00;;;;;;;16.03;55.94;102806.84;5146091;28;20424;-58
2022/08/06 05:51:49;;;;;;;7.13;1.80;;;;;;;17.26;55.06;102815.06;5148971;28;20425;-62
2022/08/06 05:54:30;;;;;;;7.50;1.88;;;;;;;19.63;52.60;102819.09;5145988;28;20511;-61
2022/08/06 05:57:11;;;;;;;3.70;1.10;;;;;;;21.97;50.13;102812.09;5130787;28;20740;-62
2022/08/06 05:59:50;;;;;;;6.28;1.20;;;;;;;24.10;47.71;102809.94;5119818;28;20472;-62
2022/08/06 06:02:24;;;;;;;9.20;1.15;;;;;;;25.93;45.59;102808.91;5121765;28;20437;-61
2022/08/06 06:04:56;;;;;;;4.75;1.10;;;;;;;27.50;43.54;102813.63;5136394;28;20420;-61
2022/08/06 06:07:31;;;;;;;3.25;1.17;;;;;;;28.93;41.59;102813.06;5147237;28;20778;-62
2022/08/06 06:10:06;;;;;;;4.75;1.02;;;;;;;30.16;40.13;102819.28;5149842;28;20420;-61
2022/08/06 06:12:38;;;;;;;3.70;1.00;;;;;;;31.27;38.34;102821.34;5151900;28;20790;-61
2022/08/06 06:15:13;;;;;;;3.05;0.88;;;;;;;32.30;36.86;102819.50;5152237;28;20412;-61
2022/08/06 06:18:15;;;;;;;2.08;0.90;;;;;;;33.36;35.59;102824.91;5152371;28;20409;-61
2022/08/06 06:21:08;;;;;;;4.67;1.40;;;;;;;34.39;34.30;102824.03;5150548;28;20423;-61
2022/08/06 06:23:47;;;;;;;4.63;1.55;;;;;;;35.16;32.84;102830.88;5151667;28;20500;-61
2022/08/06 06:26:28;;;;;;;3.40;1.13;;;;;;;35.84;32.04;102833.56;5152319;28;20502;-61
2022/08/06 06:29:08;;;;;;;2.63;0.80;;;;;;;36.47;31.20;102841.56;5147363;28;20731;-61
2022/08/06 06:31:52;;;;;;;2.50;0.80;;;;;;;37.07;30.12;102845.31;5151628;28;20419;-60
2022/08/06 06:34:41;;;;;;;2.67;1.15;;;;;;;37.67;29.34;102847.25;5150398;28;20408;-60
2022/08/06 06:37:25;;;;;;;2.47;0.98;;;;;;;38.17;28.51;102848.00;5140680;28;20817;-61
2022/08/06 06:40:30;;;;;;;2.38;0.80;;;;;;;38.56;28.02;102847.94;5140880;28;20414;-61
2022/08/06 06:43:09;;;;;;;1.65;0.65;;;;;;;38.98;27.40;102854.66;5168066;28;20899;-60
2022/08/06 06:45:57;;;;;;;2.50;0.40;;;;;;;39.19;26.92;102845.00;5168690;28;20870;-58
2022/08/06 06:48:36;;;;;;;2.17;0.40;;;;;;;39.41;26.45;102849.97;5141143;28;20510;-58
2022/08/06 06:51:14;;;;;;;4.22;0.55;;;;;;;39.57;26.18;102839.53;5146623;28;20416;-60
2022/08/06 06:53:49;;;;;;;1.77;0.77;;;;;;;39.59;25.87;102847.53;5152075;28;20861;-59
2022/08/06 06:56:28;;;;;;;0.60;0.30;;;;;;;39.32;25.82;102849.00;5149775;28;20739;-59
2022/08/06 06:59:07;;;;;;;2.05;0.60;;;;;;;39.36;25.62;102841.75;5151572;28;20443;-58
2022/08/06 07:01:41;;;;;;;2.03;0.60;;;;;;;38.91;25.55;102855.03;5151561;28;20447;-59
2022/08/06 07:04:16;;;;;;;2.75;1.27;;;;;;;39.03;25.33;102853.81;5151879;28;20435;-58
2022/08/06 07:06:51;;;;;;;2.30;0.70;;;;;;;39.20;24.97;102846.63;5152003;28;20812;-58
2022/08/06 07:09:27;;;;;;;1.60;0.57;;;;;;;39.55;24.73;102852.00;5148954;28;20405;-59
2022/08/06 07:12:03;;;;;;;1.63;0.40;;;;;;;39.79;24.47;102852.75;5152229;28;20777;-58
2022/08/06 07:14:38;;;;;;;1.75;0.60;;;;;;;39.92;23.89;102851.19;5151457;28;20411;-58
2022/08/06 07:17:12;;;;;;;4.65;0.70;;;;;;;39.31;24.21;102863.97;5150243;28;20954;-58
2022/08/06 07:19:45;;;;;;;1.90;0.47;;;;;;;39.28;24.11;102864.56;5151084;28;20829;-55
2022/08/06 07:22:18;;;;;;;1.70;0.75;;;;;;;39.52;23.94;102863.66;5151553;28;20862;-58
2022/08/06 07:24:55;;;;;;;2.10;0.55;;;;;;;39.72;23.63;102863.38;5148462;28;20409;-55
2022/08/06 07:27:33;;;;;;;2.25;0.60;;;;;;;39.83;23.54;102851.06;5151312;28;20944;-56
2022/08/06 07:30:08;;;;;;;1.20;0.60;;;;;;;40.17;23.18;102871.28;5151677;28;20877;-58
2022/08/06 07:32:41;;;;;;;3.22;0.50;;;;;;;40.37;23.30;102873.69;5150702;28;20805;-57
2022/08/06 07:35:14;;;;;;;1.88;0.52;;;;;;;40.50;23.06;102874.84;5147109;28;20413;-56
2022/08/06 07:37:54;;;;;;;1.85;0.30;;;;;;;40.57;22.96;102875.25;5153439;28;20961;-56
2022/08/06 07:40:38;;;;;;;0.80;0.30;;;;;;;40.38;23.24;102878.09;5148700;28;20796;-57
2022/08/06 07:43:14;;;;;;;2.00;0.40;;;;;;;40.30;22.97;102881.59;5151071;28;26126;-56
2022/08/06 07:45:50;;;;;;;2.13;0.50;;;;;;;39.73;23.19;102887.16;5151355;28;20503;-54
2022/08/06 07:48:28;;;;;;;1.58;0.57;;;;;;;38.48;24.09;102879.75;5140358;28;20906;-54
2022/08/06 07:51:02;;;;;;;0.70;0.30;;;;;;;37.14;24.51;102884.41;5150624;28;20428;-54
2022/08/06 07:53:37;;;;;;;2.80;0.90;;;;;;;35.93;25.20;102897.09;5145035;28;20433;-54
2022/08/06 07:56:11;;;;;;;2.92;0.45;;;;;;;34.77;25.65;102888.81;5133462;28;20761;-55
2022/08/06 07:58:45;;;;;;;2.17;0.60;;;;;;;33.84;26.03;102894.53;5141936;28;20419;-54
2022/08/06 08:01:18;;;;;;;1.33;0.52;;;;;;;33.70;26.14;102893.28;5151001;28;20413;-54
2022/08/06 08:06:42;;;;;;;1.08;0.57;;;;;;;34.70;25.60;102885.47;5142883;28;20738;-54
2022/08/06 08:09:17;;;;;;;1.40;0.30;;;;;;;34.94;25.55;102890.59;5150901;28;20416;-53
2022/08/06 08:11:51;;;;;;;2.60;0.65;;;;;;;35.15;25.69;102886.88;5150135;28;20413;-57
2022/08/06 08:14:26;;;;;;;2.58;0.47;;;;;;;35.37;25.41;102883.13;5151260;28;20444;-53
2022/08/06 08:16:58;;;;;;;1.20;0.40;;;;;;;35.39;25.53;102880.94;5150024;28;20894;-53
2022/08/06 08:19:33;;;;;;;1.98;0.38;;;;;;;35.10;25.63;102887.69;5150592;28;20778;-54
2022/08/06 08:22:10;;;;;;;2.13;0.50;;;;;;;34.88;25.57;102887.81;5145679;28;20874;-54
2022/08/06 08:24:46;;;;;;;0.63;0.30;;;;;;;34.93;25.90;102894.41;5150310;28;20412;-54
2022/08/06 08:27:18;;;;;;;0.90;0.30;;;;;;;35.09;25.69;102896.16;5150242;28;20409;-53
2022/08/06 08:29:52;;;;;;;1.20;0.40;;;;;;;35.04;25.65;102890.69;5150063;28;20413;-54
2022/08/06 08:32:24;;;;;;;1.58;0.50;;;;;;;34.42;25.97;102900.31;5144807;28;20729;-50
2022/08/06 08:34:56;;;;;;;2.00;0.70;;;;;;;33.64;26.50;102897.03;5170405;28;20415;-51
2022/08/06 08:37:29;;;;;;;1.80;0.52;;;;;;;32.88;26.49;102894.84;5157203;28;20904;-54
2022/08/06 08:40:02;;;;;;;2.53;0.60;;;;;;;32.54;26.84;102896.78;5149262;28;20429;-53
2022/08/06 08:42:41;;;;;;;2.08;0.50;;;;;;;32.61;26.85;102891.97;5150179;28;20630;-54
2022/08/06 08:45:16;;;;;;;0.80;0.30;;;;;;;32.63;26.77;102897.22;5141576;28;20520;-54
2022/08/06 08:47:54;;;;;;;0.90;0.35;;;;;;;32.43;26.84;102903.97;5141807;28;20426;-53
2022/08/06 08:50:30;;;;;;;1.27;0.45;;;;;;;32.00;26.97;102896.34;5143931;28;20506;-52
2022/08/06 08:53:07;;;;;;;0.77;0.30;;;;;;;31.66;26.99;102899.78;5149931;28;20417;-53
2022/08/06 08:55:40;;;;;;;1.00;0.40;;;;;;;31.54;27.32;102893.50;5144018;28;20478;-53
2022/08/06 08:58:14;;;;;;;3.67;0.40;;;;;;;31.56;26.83;102902.28;5117706;28;20438;-51
2022/08/06 09:00:48;;;;;;;1.87;0.40;;;;;;;31.62;26.85;102901.34;5125555;28;20818;-56
2022/08/06 09:03:20;;;;;;;0.95;0.30;;;;;;;31.42;27.08;102898.16;5121543;28;20851;-53
2022/08/06 09:05:53;;;;;;;2.67;0.47;;;;;;;31.01;27.07;102906.25;5126789;28;20747;-47
2022/08/06 09:08:26;;;;;;;1.50;0.32;;;;;;;30.45;27.56;102901.28;5125070;28;20445;-53
2022/08/06 09:10:59;;;;;;;1.55;0.52;;;;;;;30.04;27.52;102901.00;5117376;28;20881;-52
2022/08/06 09:13:31;;;;;;;2.03;0.47;;;;;;;29.83;27.68;102905.06;5128263;28;20416;-53
2022/08/06 09:16:06;;;;;;;2.55;0.60;;;;;;;29.76;27.57;102898.88;5151324;28;20885;-51
2022/08/06 09:18:38;;;;;;;1.25;0.30;;;;;;;29.76;27.60;102908.91;5149262;28;20420;-53
2022/08/06 09:21:10;;;;;;;2.17;0.35;;;;;;;29.85;27.57;102899.38;5134155;28;23210;-53
2022/08/06 09:23:43;;;;;;;2.58;0.60;;;;;;;29.93;27.29;102892.78;5147923;28;20423;-50
2022/08/06 09:26:16;;;;;;;1.37;0.37;;;;;;;29.79;27.40;102903.00;5148565;28;20424;-54
2022/08/06 09:28:48;;;;;;;1.05;0.60;;;;;;;29.42;27.76;102903.00;5154767;28;20403;-54
2022/08/06 09:31:22;;;;;;;2.65;0.70;;;;;;;29.02;27.79;102913.44;5169058;28;20497;-37
2022/08/06 09:33:58;;;;;;;2.58;0.82;;;;;;;28.73;27.91;102902.16;5167664;28;20435;-54
2022/08/06 09:36:43;;;;;;;1.45;0.50;;;;;;;28.61;27.95;102907.47;5148422;28;20829;-55
2022/08/06 09:39:16;;;;;;;2.20;0.50;;;;;;;28.62;27.93;102909.16;5148702;28;20416;-53
2022/08/06 09:41:51;;;;;;;1.50;0.50;;;;;;;28.68;27.87;102907.44;5143544;28;20746;-52
2022/08/06 09:44:23;;;;;;;1.70;0.68;;;;;;;28.69;27.83;102898.22;5142722;28;20410;-51
2022/08/06 09:46:57;;;;;;;0.70;0.40;;;;;;;28.53;27.85;102909.66;5148567;28;20741;-53
2022/08/06 09:49:45;;;;;;;1.27;0.40;;;;;;;28.56;28.07;102911.94;5148534;28;20498;-52
2022/08/06 09:52:19;;;;;;;1.00;0.40;;;;;;;28.73;27.85;102913.88;5148093;28;20592;-51
2022/08/06 09:54:51;;;;;;;1.57;0.60;;;;;;;28.89;27.61;102907.03;5144722;28;20940;-48
2022/08/06 09:57:25;;;;;;;2.30;0.57;;;;;;;29.05;27.55;102913.00;5148573;28;20868;-53
2022/08/06 09:59:57;;;;;;;1.35;0.60;;;;;;;29.00;27.61;102910.09;5148542;28;20420;-51
2022/08/06 10:02:35;;;;;;;0.53;0.50;;;;;;;28.94;27.56;102909.09;5146578;28;20434;-52
2022/08/06 10:05:09;;;;;;;1.97;0.87;;;;;;;28.85;27.73;102924.03;5134310;28;20439;-54
2022/08/06 10:07:42;;;;;;;0.90;0.45;;;;;;;28.83;27.61;102916.09;5144776;28;20870;-55
2022/08/06 10:10:14;;;;;;;2.50;0.50;;;;;;;28.87;27.34;102917.31;5148188;28;20877;-53
2022/08/06 10:12:46;;;;;;;1.55;0.60;;;;;;;28.87;27.30;102911.88;5148588;28;20866;-52
2022/08/06 10:15:30;;;;;;;2.30;0.80;;;;;;;28.62;27.41;102914.59;5144317;28;20410;-53
2022/08/06 10:18:04;;;;;;;0.70;0.40;;;;;;;28.56;27.54;102911.94;5145112;28;20417;-51
2022/08/06 10:20:36;;;;;;;0.93;0.40;;;;;;;28.61;27.45;102917.53;5147733;28;20428;-50
2022/08/06 10:23:10;;;;;;;1.33;0.38;;;;;;;28.59;27.37;102908.78;5148091;28;20432;-51
2022/08/06 10:25:42;;;;;;;0.80;0.50;;;;;;;28.58;27.41;102923.41;5158907;28;20407;-53
2022/08/06 10:28:15;;;;;;;1.15;0.47;;;;;;;28.46;27.40;102920.53;5167585;28;20788;-53
2022/08/06 10:30:48;;;;;;;1.95;0.50;;;;;;;28.07;27.67;102919.72;5164204;28;20463;-54
2022/08/06 10:33:25;;;;;;;1.45;0.60;;;;;;;27.86;27.86;102920.84;5148265;28;20711;-56
2022/08/06 10:36:04;;;;;;;1.70;0.50;;;;;;;27.85;27.94;102919.19;5145549;28;20483;-52
2022/08/06 10:38:38;;;;;;;2.28;0.52;;;;;;;27.91;27.78;102917.50;5140223;28;20446;-53
2022/08/06 10:41:13;;;;;;;1.30;0.80;;;;;;;27.91;27.55;102912.91;5136602;28;20861;-52
2022/08/06 10:43:47;;;;;;;1.70;0.65;;;;;;;27.89;27.51;102925.84;5143039;28;20415;-54
2022/08/06 10:46:19;;;;;;;1.40;0.60;;;;;;;27.89;27.59;102920.41;5143710;28;20803;-53
2022/08/06 10:48:54;;;;;;;3.43;0.70;;;;;;;27.93;27.56;102921.63;5126372;28;20478;-51
2022/08/06 10:51:27;;;;;;;2.58;0.95;;;;;;;28.10;27.29;102922.00;5118928;28;20793;-53
2022/08/06 10:54:00;;;;;;;1.67;0.55;;;;;;;28.33;27.25;102921.44;5127875;28;20786;-53
2022/08/06 10:56:33;;;;;;;1.40;0.50;;;;;;;28.41;27.32;102923.94;5143782;28;20509;-53
2022/08/06 10:59:07;;;;;;;1.02;0.43;;;;;;;28.40;27.30;102922.28;5152214;28;20424;-50
2022/08/06 11:01:49;;;;;;;1.50;0.63;;;;;;;28.30;27.45;102919.16;5150999;28;20528;-52
2022/08/06 11:04:42;;;;;;;0.80;0.50;;;;;;;28.18;27.50;102912.75;5146051;28;20419;-53
2022/08/06 11:07:57;;;;;;;1.00;0.60;;;;;;;28.07;27.89;102917.00;5151308;28;20401;-52
2022/08/06 11:11:06;;;;;;;0.60;0.40;;;;;;;27.99;28.06;102911.81;5146200;28;20591;-53
2022/08/06 11:13:48;;;;;;;1.20;0.55;;;;;;;28.07;28.10;102910.72;5146940;28;20397;-54
2022/08/06 11:16:25;;;;;;;1.25;0.38;;;;;;;28.26;28.13;102915.22;5123501;28;20895;-55
2022/08/06 11:19:04;;;;;;;1.00;0.40;;;;;;;28.36;28.21;102912.84;5128182;28;20414;-51
2022/08/06 11:21:40;;;;;;;1.88;0.52;;;;;;;28.22;28.53;102905.84;5137984;28;20792;-52
2022/08/06 11:24:14;;;;;;;1.38;0.60;;;;;;;28.09;28.52;102901.31;5171778;28;20927;-52
2022/08/06 11:26:47;;;;;;;0.97;0.40;;;;;;;28.15;28.45;102905.03;5169030;28;20701;-53
2022/08/06 11:29:19;;;;;;;1.70;0.70;;;;;;;28.29;28.41;102914.78;5151180;28;20500;-54
2022/08/06 11:31:52;;;;;;;1.88;0.40;;;;;;;28.43;28.39;102910.13;5141159;28;20506;-52
2022/08/06 11:34:43;;;;;;;1.05;0.35;;;;;;;28.11;28.67;102895.66;5142270;28;20431;-53
2022/08/06 11:37:44;;;;;;;1.90;0.40;;;;;;;28.23;28.69;102910.22;5131741;28;20789;-53
2022/08/06 11:40:16;;;;;;;0.60;0.38;;;;;;;28.26;28.66;102907.06;5126299;28;20432;-52
2022/08/06 11:42:49;;;;;;;2.05;0.65;;;;;;;27.92;28.93;102914.56;5143653;28;20415;-53
2022/08/06 11:45:21;;;;;;;1.40;0.40;;;;;;;27.55;29.10;102908.81;5142878;28;20866;-51
2022/08/06 11:48:07;;;;;;;0.80;0.50;;;;;;;27.53;29.03;102904.63;5148657;28;20416;-55
2022/08/06 11:50:40;;;;;;;1.55;0.40;;;;;;;27.68;28.96;102909.81;5150011;28;20424;-50
2022/08/06 11:53:17;;;;;;;0.50;0.30;;;;;;;27.80;28.84;102910.84;5142272;28;20864;-53
2022/08/06 11:56:06;;;;;;;2.63;0.90;;;;;;;27.91;28.75;102912.91;5149707;28;20679;-52
2022/08/06 11:58:38;;;;;;;1.80;0.40;;;;;;;28.01;28.72;102905.09;5148797;28;20433;-52
2022/08/06 12:01:11;;;;;;;2.28;0.50;;;;;;;28.17;28.44;102898.34;5146541;28;20936;-50
2022/08/06 12:03:44;;;;;;;1.55;0.35;;;;;;;28.35;28.42;102897.59;5150036;28;20872;-56
2022/08/06 12:06:25;;;;;;;1.87;0.37;;;;;;;28.38;28.30;102901.78;5149661;28;20431;-54
2022/08/06 12:09:18;;;;;;;2.55;0.57;;;;;;;28.35;28.41;102903.03;5148249;28;20506;-54